createdAt,value
2022-07-29T00:01:03.311Z,67.95
2022-07-29T00:06:07.018Z,67.97
2022-07-29T00:11:10.601Z,68.36
2022-07-29T00:16:14.607Z,68.37
2022-07-29T00:21:18.334Z,68.41
2022-07-29T00:26:21.885Z,68.37
2022-07-29T00:31:25.378Z,68.34
2022-07-29T00:36:29.387Z,68.33
2022-07-29T00:41:33.055Z,68.62
2022-07-29T00:46:37.416Z,68.83
2022-07-29T00:51:41.181Z,69.02
2022-07-29T00:56:45.619Z,69.32
2022-07-29T01:01:49.216Z,69.31
2022-07-29T01:06:53.331Z,69.87
2022-07-29T01:11:57.059Z,69.87
2022-07-29T01:17:07.286Z,69.99
2022-07-29T01:22:44.136Z,69.97
2022-07-29T01:28:19.231Z,69.63
2022-07-29T01:33:47.548Z,69.73
2022-07-29T01:39:01.108Z,70.05
2022-07-29T01:44:14.667Z,70.38
2022-07-29T01:49:25.804Z,70.44
2022-07-29T01:54:32.530Z,70.07
2022-07-29T01:59:39.016Z,70.33
2022-07-29T02:04:47.115Z,70.36
2022-07-29T02:09:53.534Z,70.70
2022-07-29T02:15:02.715Z,70.82
2022-07-29T02:20:08.521Z,70.59
2022-07-29T02:25:14.380Z,70.53
2022-07-29T02:30:20.025Z,70.57
2022-07-29T02:35:24.471Z,70.88
2022-07-29T02:40:28.127Z,71.10
2022-07-29T02:45:32.623Z,70.98
2022-07-29T02:50:45.999Z,71.05
2022-07-29T02:56:03.363Z,71.11
2022-07-29T03:01:21.623Z,71.11
2022-07-29T03:06:38.288Z,71.31
2022-07-29T03:11:49.432Z,71.52
2022-07-29T03:16:54.818Z,71.76
2022-07-29T03:21:59.388Z,71.81
2022-07-29T03:27:04.722Z,71.84
2022-07-29T03:32:09.090Z,72.06
2022-07-29T03:37:12.760Z,72.35
2022-07-29T03:42:21.224Z,72.57
2022-07-29T03:47:50.069Z,72.81
2022-07-29T03:52:53.046Z,73.15
2022-07-29T03:57:58.909Z,72.80
2022-07-29T04:03:05.337Z,72.37
2022-07-29T04:08:14.239Z,72.11
2022-07-29T04:13:18.119Z,72.25
2022-07-29T04:18:21.643Z,71.74
2022-07-29T04:23:25.973Z,71.29
2022-07-29T04:28:30.290Z,71.14
2022-07-29T04:33:34.826Z,70.97
2022-07-29T04:38:39.340Z,70.62
2022-07-29T04:43:43.207Z,70.42
2022-07-29T04:48:51.002Z,69.92
2022-07-29T04:53:54.760Z,69.24
2022-07-29T04:58:58.201Z,68.83
2022-07-29T05:04:01.830Z,68.30
2022-07-29T05:09:06.123Z,68.26
2022-07-29T05:14:10.407Z,68.31
2022-07-29T05:19:14.938Z,68.31
2022-07-29T05:24:19.751Z,66.43
2022-07-29T05:29:44.070Z,63.12
2022-07-29T05:34:51.137Z,58.35
2022-07-29T05:39:56.659Z,53.15
2022-07-29T05:45:01.406Z,48.44
2022-07-29T05:50:05.960Z,44.52
2022-07-29T05:55:11.071Z,40.70
2022-07-29T06:00:15.793Z,37.65
2022-07-29T06:05:20.911Z,35.27
2022-07-29T06:10:27.098Z,34.61
2022-07-29T06:15:32.118Z,33.04
2022-07-29T06:20:40.316Z,31.93
2022-07-29T06:25:45.199Z,31.28
2022-07-29T06:30:49.326Z,30.99
2022-07-29T06:35:55.109Z,30.92
2022-07-29T06:41:03.875Z,31.40
2022-07-29T06:46:12.424Z,31.75
2022-07-29T06:51:22.390Z,32.08
2022-07-29T06:56:29.552Z,32.66
2022-07-29T07:01:34.225Z,32.90
2022-07-29T07:06:39.597Z,33.33
2022-07-29T07:11:43.847Z,33.50
2022-07-29T07:16:52.681Z,32.51
2022-07-29T07:22:00.297Z,31.48
2022-07-29T07:27:06.619Z,30.57
2022-07-29T07:32:10.641Z,30.44
2022-07-29T07:37:16.596Z,30.08
2022-07-29T07:42:22.269Z,30.49
2022-07-29T07:47:27.951Z,31.20
2022-07-29T07:52:32.688Z,30.93
2022-07-29T07:57:37.009Z,31.17
2022-07-29T08:02:43.279Z,30.96
2022-07-29T08:07:49.041Z,31.22
2022-07-29T08:12:53.010Z,32.58
2022-07-29T08:17:56.875Z,32.65
2022-07-29T08:23:00.767Z,32.41
2022-07-29T08:28:04.375Z,32.28
2022-07-29T08:33:08.717Z,32.83
2022-07-29T08:38:13.094Z,33.12
2022-07-29T08:43:16.983Z,33.66
2022-07-29T08:48:23.977Z,33.29
2022-07-29T08:53:30.033Z,32.65
2022-07-29T08:58:37.144Z,32.60
2022-07-29T09:03:45.764Z,32.67
2022-07-29T09:08:50.879Z,32.97
2022-07-29T09:13:55.733Z,32.82
2022-07-29T09:19:00.894Z,33.44
2022-07-29T09:24:15.021Z,33.17
2022-07-29T09:29:21.461Z,32.99
2022-07-29T09:34:29.842Z,33.54
2022-07-29T09:39:36.691Z,33.47
2022-07-29T09:44:49.865Z,33.41
2022-07-29T09:49:55.336Z,34.21
2022-07-29T09:55:09.907Z,33.83
2022-07-29T10:00:19.647Z,32.98
2022-07-29T10:05:36.255Z,32.99
2022-07-29T10:10:43.067Z,32.76
2022-07-29T10:15:47.747Z,32.48
2022-07-29T10:20:52.746Z,32.81
2022-07-29T10:25:56.765Z,32.13
2022-07-29T10:31:24.728Z,31.88
2022-07-29T10:36:59.586Z,32.05
2022-07-29T10:42:29.580Z,32.13
2022-07-29T10:47:38.801Z,32.26
2022-07-29T10:52:58.003Z,32.20
2022-07-29T10:58:19.774Z,31.66
2022-07-29T11:03:50.711Z,31.88
2022-07-29T11:09:25.676Z,31.70
2022-07-29T11:15:00.473Z,32.19
2022-07-29T11:20:46.767Z,32.34
2022-07-29T11:26:19.098Z,32.58
2022-07-29T11:31:44.250Z,33.02
2022-07-29T11:37:14.394Z,32.58
2022-07-29T11:42:28.352Z,32.09
2022-07-29T11:47:42.261Z,30.92
2022-07-29T11:52:49.531Z,30.65
2022-07-29T11:58:04.188Z,30.36
2022-07-29T12:03:11.989Z,30.23
2022-07-29T12:08:23.335Z,30.91
2022-07-29T12:13:41.225Z,30.60
2022-07-29T12:19:00.617Z,31.11
2022-07-29T12:24:09.694Z,31.24
2022-07-29T12:29:33.850Z,31.35
2022-07-29T12:34:42.746Z,31.46
2022-07-29T12:39:47.699Z,30.98
2022-07-29T12:44:52.962Z,30.69
2022-07-29T12:50:23.254Z,30.70
2022-07-29T12:55:41.831Z,31.28
2022-07-29T13:00:45.723Z,31.76
2022-07-29T13:05:52.323Z,32.02
2022-07-29T13:10:57.697Z,32.24
2022-07-29T13:16:10.551Z,32.55
2022-07-29T13:21:18.755Z,32.99
2022-07-29T13:26:23.382Z,33.22
2022-07-29T13:31:28.618Z,32.91
2022-07-29T13:36:33.848Z,33.33
2022-07-29T13:41:39.397Z,33.18
2022-07-29T13:46:46.734Z,32.97
2022-07-29T13:51:51.784Z,33.62
2022-07-29T13:56:58.122Z,33.89
2022-07-29T14:02:01.569Z,33.76
2022-07-29T14:07:05.477Z,33.68
2022-07-29T14:12:09.656Z,33.76
2022-07-29T14:17:12.975Z,34.20
2022-07-29T14:22:16.744Z,34.04
2022-07-29T14:27:20.847Z,33.99
2022-07-29T14:32:42.067Z,34.18
2022-07-29T14:37:46.486Z,34.28
2022-07-29T14:42:50.563Z,34.32
2022-07-29T14:47:57.355Z,34.34
2022-07-29T14:53:02.655Z,34.56
2022-07-29T14:58:12.119Z,34.64
2022-07-29T15:03:22.839Z,35.02
2022-07-29T15:08:29.516Z,35.05
2022-07-29T15:13:33.078Z,35.30
2022-07-29T15:18:39.056Z,35.61
2022-07-29T15:23:42.609Z,35.71
2022-07-29T15:28:46.365Z,35.92
2022-07-29T15:33:54.423Z,36.15
2022-07-29T15:39:01.208Z,36.42
2022-07-29T15:44:05.462Z,36.24
2022-07-29T15:49:10.455Z,36.36
2022-07-29T15:54:14.203Z,36.66
2022-07-29T15:59:22.593Z,36.96
2022-07-29T16:04:26.927Z,36.98
2022-07-29T16:09:31.374Z,37.66
2022-07-29T16:14:35.236Z,37.65
2022-07-29T16:19:41.783Z,37.59
2022-07-29T16:24:45.374Z,38.10
2022-07-29T16:29:54.395Z,37.74
2022-07-29T16:35:06.687Z,38.02
2022-07-29T16:40:11.653Z,38.22
2022-07-29T16:45:17.991Z,38.56
2022-07-29T16:50:24.845Z,38.95
2022-07-29T16:55:29.273Z,38.98
2022-07-29T17:00:32.930Z,39.10
2022-07-29T17:05:52.569Z,39.72
2022-07-29T17:10:58.137Z,39.60
2022-07-29T17:16:02.199Z,40.01
2022-07-29T17:21:06.961Z,40.33
2022-07-29T17:26:10.974Z,40.64
2022-07-29T17:31:16.330Z,40.83
2022-07-29T17:36:24.840Z,41.06
2022-07-29T17:41:29.029Z,41.50
2022-07-29T17:46:32.632Z,41.84
2022-07-29T17:51:39.815Z,42.17
2022-07-29T17:56:46.225Z,42.40
2022-07-29T18:01:50.789Z,42.40
2022-07-29T18:06:54.593Z,42.89
2022-07-29T18:11:58.873Z,43.69
2022-07-29T18:17:02.550Z,44.06
2022-07-29T18:22:07.885Z,44.62
2022-07-29T18:27:12.113Z,44.69
2022-07-29T18:32:16.118Z,44.84
2022-07-29T18:37:20.131Z,45.07
2022-07-29T18:42:43.756Z,45.21
2022-07-29T18:47:49.593Z,45.40
2022-07-29T18:52:53.332Z,45.32
2022-07-29T18:57:57.885Z,45.44
2022-07-29T19:03:03.796Z,45.62
2022-07-29T19:08:13.134Z,45.65
2022-07-29T19:13:17.721Z,45.90
2022-07-29T19:18:21.724Z,45.89
2022-07-29T19:23:27.161Z,46.07
2022-07-29T19:28:48.833Z,46.01
2022-07-29T19:33:58.746Z,46.13
2022-07-29T19:39:02.691Z,46.16
2022-07-29T19:44:06.286Z,46.33
2022-07-29T19:49:10.761Z,46.47
2022-07-29T19:54:16.142Z,46.37
2022-07-29T19:59:19.490Z,46.53
2022-07-29T20:04:27.964Z,46.62
2022-07-29T20:09:31.682Z,46.50
2022-07-29T20:14:35.314Z,46.65
2022-07-29T20:19:39.122Z,46.85
2022-07-29T20:24:43.024Z,46.98
2022-07-29T20:29:48.738Z,47.13
2022-07-29T20:34:52.460Z,47.22
2022-07-29T20:39:56.802Z,47.20
2022-07-29T20:45:00.268Z,47.24
2022-07-29T20:50:04.657Z,47.59
2022-07-29T20:55:10.513Z,47.57
2022-07-29T21:00:19.301Z,47.48
2022-07-29T21:05:25.455Z,47.59
2022-07-29T21:10:30.052Z,47.52
2022-07-29T21:15:36.963Z,47.54
2022-07-29T21:20:41.628Z,47.57
2022-07-29T21:25:45.825Z,47.65
2022-07-29T21:30:54.953Z,47.77
2022-07-29T21:36:35.451Z,47.86
2022-07-29T21:41:30.627Z,47.83
2022-07-29T21:46:37.249Z,47.96
2022-07-29T21:51:41.722Z,48.10
2022-07-29T21:56:51.181Z,48.23
2022-07-29T22:02:01.182Z,48.34
2022-07-29T22:07:06.421Z,48.43
2022-07-29T22:12:12.514Z,48.87
2022-07-29T22:17:16.943Z,48.95
2022-07-29T22:22:20.685Z,49.23
2022-07-29T22:27:24.241Z,49.13
2022-07-29T22:32:27.776Z,49.92
2022-07-29T22:37:32.428Z,50.40
2022-07-29T22:42:40.910Z,50.76
2022-07-29T22:47:48.680Z,51.06
2022-07-29T22:52:53.178Z,51.16
2022-07-29T22:57:57.252Z,52.51
2022-07-29T23:03:01.768Z,53.50
2022-07-29T23:08:06.209Z,54.55
2022-07-29T23:13:11.754Z,55.37
2022-07-29T23:18:15.663Z,56.50
2022-07-29T23:23:20.518Z,57.46
2022-07-29T23:28:25.538Z,58.10
2022-07-29T23:33:30.041Z,58.99
2022-07-29T23:38:34.097Z,59.69
2022-07-29T23:43:39.339Z,60.59
2022-07-29T23:48:44.612Z,61.16
2022-07-29T23:53:53.450Z,61.83
2022-07-29T23:59:01.583Z,62.24
